Time;durP1;ratioP1;P1;durP2;ratioP2;P2;SDS_P1;SDS_P2;PMS_P1;PMS_P2;Temp;Humidity;BMP_temperature;BMP_pressure;BME280_temperature;BME280_humidity;BME280_pressure;Samples;Min_cycle;Max_cycle;Signal;HPM_P1;HPM_P2
2023/12/14 00:00:14;;;;;;;3.43;1.10;;;;;;;-10.36;61.53;100726.16;5014659;28;20048;-67
2023/12/14 00:02:44;;;;;;;3.28;1.40;;;;;;;-10.45;62.26;100715.28;4996241;28;20076;-66
2023/12/14 00:05:15;;;;;;;10.67;3.37;;;;;;;-10.21;62.40;100738.34;4988592;28;20132;-68
2023/12/14 00:07:42;;;;;;;5.18;1.17;;;;;;;-10.38;61.68;100747.78;5015589;28;20054;-69
2023/12/14 00:10:14;;;;;;;13.88;4.32;;;;;;;-10.32;63.15;100760.94;5020049;28;20050;-69
2023/12/14 00:12:46;;;;;;;6.87;2.03;;;;;;;-10.30;62.64;100758.53;5013173;28;20069;-70
2023/12/14 00:15:15;;;;;;;17.13;4.23;;;;;;;-10.55;62.13;100732.84;4998326;28;20077;-69
2023/12/14 00:17:44;;;;;;;5.78;1.50;;;;;;;-11.09;63.05;100618.19;4983522;28;20175;-70
2023/12/14 00:20:10;;;;;;;17.13;2.00;;;;;;;-10.39;62.09;100733.47;5011896;28;20416;-67
2023/12/14 00:22:48;;;;;;;1.13;0.77;;;;;;;-10.31;62.56;100729.09;4996407;28;20504;-68
2023/12/14 00:25:16;;;;;;;;;;;;;;;-9.99;63.02;100754.59;4998708;28;21164;-68
2023/12/14 00:27:47;;;;;;;18.48;1.50;;;;;;;-9.99;62.30;100771.38;4999425;28;19970;-65
2023/12/14 00:30:16;;;;;;;8.07;2.37;;;;;;;-10.01;62.55;100756.09;5015808;28;20129;-67
2023/12/14 00:32:45;;;;;;;10.80;2.97;;;;;;;-10.06;62.43;100751.41;4983426;28;20133;-67
2023/12/14 00:35:26;;;;;;;2.42;0.65;;;;;;;-10.11;62.98;100740.94;4998184;28;20187;-68
2023/12/14 00:37:54;;;;;;;10.55;2.90;;;;;;;-10.04;62.97;100710.50;4998731;28;20427;-68
2023/12/14 00:40:23;;;;;;;4.22;1.30;;;;;;;-9.73;62.83;100742.56;4999957;28;20041;-67
2023/12/14 00:42:49;;;;;;;8.70;2.53;;;;;;;-9.68;62.97;100738.75;4993687;28;20068;-69
2023/12/14 00:45:18;;;;;;;18.15;3.35;;;;;;;-9.95;62.58;100734.72;5012289;28;20046;-66
2023/12/14 00:47:47;;;;;;;7.72;1.90;;;;;;;-10.56;61.12;100665.66;5012369;28;20076;-68
2023/12/14 00:50:19;;;;;;;2.22;0.57;;;;;;;-10.52;62.19;100677.75;5013593;28;20045;-67
2023/12/14 00:52:50;;;;;;;6.25;1.70;;;;;;;-10.70;62.39;100651.84;5017335;28;20057;-69
2023/12/14 00:55:27;;;;;;;12.00;1.33;;;;;;;-10.07;61.98;100762.22;5011674;28;20223;-69
2023/12/14 00:57:53;;;;;;;1.30;0.35;;;;;;;-10.44;61.30;100712.03;5014354;28;20037;-69
2023/12/14 01:00:21;;;;;;;4.83;1.40;;;;;;;-10.18;61.86;100736.09;4998444;28;20072;-69
2023/12/14 01:02:47;;;;;;;6.30;2.25;;;;;;;-10.21;61.76;100730.78;5010370;28;20130;-68
2023/12/14 01:05:16;;;;;;;5.95;1.38;;;;;;;-10.08;62.43;100740.31;4977328;28;20132;-67
2023/12/14 01:07:48;;;;;;;8.90;1.45;;;;;;;-10.05;61.01;100748.16;5000115;28;20049;-70
2023/12/14 01:10:17;;;;;;;6.18;1.63;;;;;;;-10.11;62.45;100747.59;4974586;28;20143;-70
2023/12/14 01:12:44;;;;;;;10.27;1.88;;;;;;;-10.02;61.46;100739.22;5000719;28;20068;-69
2023/12/14 01:15:10;;;;;;;4.73;1.03;;;;;;;-10.34;61.11;100708.66;4989106;28;20543;-67
2023/12/14 01:17:37;;;;;;;16.40;3.53;;;;;;;-10.19;62.08;100721.75;5009378;28;20041;-67
2023/12/14 01:20:07;;;;;;;3.20;1.40;;;;;;;-10.14;61.73;100728.06;4985636;28;20117;-66
2023/12/14 01:22:34;;;;;;;6.23;0.90;;;;;;;-10.18;61.29;100723.50;5017095;28;20038;-66
2023/12/14 01:25:03;;;;;;;1.75;1.08;;;;;;;-10.24;61.72;100726.38;4975561;28;20049;-66
2023/12/14 01:27:34;;;;;;;;;;;;;;;-9.96;62.26;100727.91;4999516;28;20048;-65
2023/12/14 01:30:03;;;;;;;2.70;1.63;;;;;;;-10.06;62.16;100734.69;5011004;28;19917;-67
2023/12/14 01:32:29;;;;;;;9.57;2.72;;;;;;;-9.92;62.19;100740.91;4984789;28;20036;-68
2023/12/14 01:35:01;;;;;;;11.20;3.27;;;;;;;-10.29;62.26;100652.97;4981972;28;20076;-69
2023/12/14 01:37:30;;;;;;;2.35;0.80;;;;;;;-10.05;62.62;100705.34;5015735;28;20140;-70
2023/12/14 01:39:57;;;;;;;19.00;3.83;;;;;;;-9.95;62.22;100723.03;4996963;28;20037;-67
2023/12/14 01:42:23;;;;;;;3.17;1.20;;;;;;;-10.25;62.12;100664.19;5018913;28;20437;-68
2023/12/14 01:44:49;;;;;;;10.77;1.75;;;;;;;-10.11;61.62;100714.84;5018715;28;20416;-68
2023/12/14 01:47:15;;;;;;;2.35;1.42;;;;;;;-10.12;61.46;100726.56;4987906;28;20128;-71
2023/12/14 01:49:44;;;;;;;9.75;2.10;;;;;;;-9.95;62.73;100737.25;5004179;28;20046;-71
2023/12/14 01:52:15;;;;;;;6.13;1.58;;;;;;;-10.11;61.81;100710.72;5016930;28;20124;-70
2023/12/14 01:54:41;;;;;;;10.93;2.55;;;;;;;-10.48;61.58;100672.25;5016947;28;20424;-70
2023/12/14 01:57:10;;;;;;;7.95;1.23;;;;;;;-10.43;61.74;100705.38;4989909;28;20063;-70
2023/12/14 01:59:36;;;;;;;4.78;1.05;;;;;;;-10.13;62.90;100717.25;4999985;28;20038;-71
2023/12/14 02:02:05;;;;;;;4.07;0.98;;;;;;;-9.84;62.09;100741.59;5025405;28;20416;-71
2023/12/14 02:04:37;;;;;;;2.95;0.98;;;;;;;-10.24;61.58;100712.88;5015284;28;20499;-71
2023/12/14 02:07:04;;;;;;;2.75;0.90;;;;;;;-10.40;62.44;100650.28;4994759;28;20061;-70
2023/12/14 02:09:30;;;;;;;10.23;2.50;;;;;;;-10.29;62.29;100645.41;5001022;28;20045;-68
2023/12/14 02:11:56;;;;;;;3.78;1.13;;;;;;;-9.85;61.96;100707.97;5014603;28;20069;-66
2023/12/14 02:14:31;;;;;;;4.45;1.88;;;;;;;-9.95;62.35;100686.88;5015928;28;20044;-68
2023/12/14 02:16:58;;;;;;;16.45;3.28;;;;;;;-9.97;62.23;100727.06;4992173;28;20141;-69
2023/12/14 02:19:24;;;;;;;14.30;2.53;;;;;;;-10.54;61.94;100623.91;4983648;28;20033;-69
2023/12/14 02:21:54;;;;;;;7.85;1.83;;;;;;;-10.08;61.85;100735.28;4999214;28;20037;-69
2023/12/14 02:24:20;;;;;;;6.10;1.30;;;;;;;-10.63;61.13;100639.94;5017395;28;20041;-70
2023/12/14 02:26:52;;;;;;;11.57;2.77;;;;;;;-10.44;61.52;100684.34;5017153;28;20614;-67
2023/12/14 02:29:21;;;;;;;2.30;0.68;;;;;;;-10.20;61.93;100737.59;4989264;28;20052;-68
2023/12/14 02:31:48;;;;;;;8.83;1.40;;;;;;;-10.99;61.71;100620.81;4998372;28;20034;-68
2023/12/14 02:34:14;;;;;;;13.43;3.08;;;;;;;-10.67;62.09;100665.56;5012630;28;20125;-68
2023/12/14 02:36:40;;;;;;;8.02;1.80;;;;;;;-10.09;63.06;100731.00;4983101;28;20033;-70
2023/12/14 02:39:07;;;;;;;10.55;3.65;;;;;;;-10.42;61.97;100680.34;5013545;28;20050;-70
2023/12/14 02:41:33;;;;;;;2.22;0.63;;;;;;;-10.72;62.39;100641.66;4999980;28;20035;-70
2023/12/14 02:44:02;;;;;;;2.20;0.82;;;;;;;-10.59;62.65;100648.66;4998337;28;20037;-68
2023/12/14 02:46:28;;;;;;;10.10;1.77;;;;;;;-10.15;62.11;100707.03;4999115;28;20475;-69
2023/12/14 02:48:58;;;;;;;21.60;3.03;;;;;;;-10.06;62.67;100712.03;4998725;28;20033;-69
2023/12/14 02:51:24;;;;;;;2.47;1.05;;;;;;;-10.16;61.82;100696.84;4998239;28;20037;-70
2023/12/14 02:53:50;;;;;;;18.17;3.25;;;;;;;-10.25;62.62;100688.44;4997070;28;20064;-69
2023/12/14 02:56:17;;;;;;;2.58;1.17;;;;;;;-10.07;62.69;100706.81;4985969;28;20416;-69
2023/12/14 02:58:43;;;;;;;2.60;1.10;;;;;;;-10.41;62.25;100649.38;5012918;28;20038;-69
2023/12/14 03:01:12;;;;;;;21.83;3.50;;;;;;;-10.08;62.58;100698.41;4983393;28;20040;-68
2023/12/14 03:03:41;;;;;;;1.45;1.30;;;;;;;-9.99;61.96;100731.06;4999937;28;20129;-68
2023/12/14 03:06:10;;;;;;;11.70;2.70;;;;;;;-9.79;62.73;100745.38;4998286;28;20049;-69
2023/12/14 03:08:39;;;;;;;16.02;3.53;;;;;;;-9.81;63.32;100715.78;4987814;28;20042;-68
2023/12/14 03:11:05;;;;;;;5.95;1.85;;;;;;;-9.64;63.29;100717.25;4990948;28;20041;-68
2023/12/14 03:13:31;;;;;;;5.97;1.48;;;;;;;-9.94;63.02;100663.44;5015247;28;20474;-67
2023/12/14 03:16:00;;;;;;;7.45;1.13;;;;;;;-9.46;63.00;100739.00;5013755;28;20034;-69
2023/12/14 03:18:26;;;;;;;18.17;3.10;;;;;;;-9.68;62.94;100717.00;5014645;28;20067;-69
2023/12/14 03:20:53;;;;;;;14.30;3.40;;;;;;;-9.54;62.58;100727.38;5011427;28;20037;-67
2023/12/14 03:23:25;;;;;;;26.08;5.03;;;;;;;-9.77;62.34;100717.81;5016607;28;20034;-68
2023/12/14 03:25:51;;;;;;;6.78;1.40;;;;;;;-10.08;62.77;100689.94;5013861;28;20057;-68
2023/12/14 03:28:19;;;;;;;2.15;0.90;;;;;;;-10.11;62.20;100688.06;4997067;28;20038;-68
2023/12/14 03:30:46;;;;;;;11.13;2.08;;;;;;;-9.86;63.20;100707.84;4997446;28;20068;-68
2023/12/14 03:33:12;;;;;;;8.52;1.85;;;;;;;-9.93;61.77;100720.63;4998751;28;20046;-67
2023/12/14 03:35:41;;;;;;;9.35;1.67;;;;;;;-10.15;61.65;100711.19;5016143;28;20037;-68
2023/12/14 03:38:10;;;;;;;11.10;4.68;;;;;;;-10.53;62.03;100659.25;5015123;28;20069;-70
2023/12/14 03:40:36;;;;;;;1.67;0.55;;;;;;;-10.23;62.23;100715.56;4998961;28;20124;-71
2023/12/14 03:43:04;;;;;;;18.27;3.23;;;;;;;-10.25;63.26;100712.00;5013405;28;20754;-69
2023/12/14 03:45:31;;;;;;;4.28;1.45;;;;;;;-10.32;62.80;100694.59;4994799;28;20399;-69
2023/12/14 03:48:03;;;;;;;7.57;2.30;;;;;;;-10.34;62.79;100671.81;4998584;28;20499;-69
2023/12/14 03:50:40;;;;;;;15.82;3.33;;;;;;;-10.41;62.47;100639.31;5015056;28;20547;-70
2023/12/14 03:53:14;;;;;;;13.77;2.08;;;;;;;-10.47;62.90;100623.66;4995136;28;20041;-68
2023/12/14 03:55:45;;;;;;;13.93;2.88;;;;;;;-10.37;63.04;100631.25;4980070;28;20075;-69
2023/12/14 03:58:11;;;;;;;5.03;0.75;;;;;;;-9.74;62.50;100730.69;4997055;28;20048;-70
2023/12/14 04:00:40;;;;;;;8.85;1.50;;;;;;;-9.89;62.43;100730.25;4997527;28;20071;-69
2023/12/14 04:03:18;;;;;;;3.95;0.95;;;;;;;-10.31;62.90;100634.31;5013434;28;20042;-68
2023/12/14 04:05:44;;;;;;;4.03;1.20;;;;;;;-10.03;63.07;100696.28;5012054;28;20048;-68
2023/12/14 04:08:14;;;;;;;5.85;1.42;;;;;;;-9.66;62.26;100754.91;4994407;28;20042;-67
2023/12/14 04:10:42;;;;;;;10.52;1.33;;;;;;;-10.13;62.04;100699.63;4995021;28;20033;-68
2023/12/14 04:13:11;;;;;;;8.30;2.13;;;;;;;-10.03;62.42;100713.91;4987123;28;20049;-71
2023/12/14 04:15:37;;;;;;;8.32;2.35;;;;;;;-10.27;61.72;100705.09;5015424;28;20096;-69
2023/12/14 04:18:05;;;;;;;7.78;1.92;;;;;;;-10.06;62.84;100723.72;4997102;28;20038;-70
2023/12/14 04:20:31;;;;;;;14.90;3.28;;;;;;;-10.57;62.41;100642.09;4998976;28;20029;-69
2023/12/14 04:23:03;;;;;;;15.98;2.95;;;;;;;-10.14;63.05;100693.69;4996890;28;20042;-68
2023/12/14 04:25:32;;;;;;;11.02;2.95;;;;;;;-10.22;62.32;100693.75;4983507;28;20136;-68
2023/12/14 04:28:09;;;;;;;5.47;2.05;;;;;;;-10.06;63.20;100706.97;4999037;28;20046;-68
2023/12/14 04:30:36;;;;;;;6.05;1.45;;;;;;;-10.65;62.28;100643.94;4991514;28;20074;-68
2023/12/14 04:33:02;;;;;;;8.98;2.42;;;;;;;-10.78;62.84;100590.78;4996973;28;20125;-68
2023/12/14 04:35:36;;;;;;;8.02;1.42;;;;;;;-9.96;62.71;100730.44;5015285;28;20107;-67
2023/12/14 04:38:05;;;;;;;9.45;1.80;;;;;;;-9.88;62.89;100732.88;5012595;28;20136;-68
2023/12/14 04:40:34;;;;;;;3.92;1.17;;;;;;;-10.17;61.65;100725.28;5029186;28;20046;-67
2023/12/14 04:43:01;;;;;;;2.70;1.00;;;;;;;-10.07;62.97;100714.38;4984715;28;20030;-69
2023/12/14 04:45:30;;;;;;;9.50;1.73;;;;;;;-10.13;62.24;100692.94;4995397;28;20406;-68
2023/12/14 04:47:57;;;;;;;17.60;2.40;;;;;;;-10.21;62.21;100683.84;4983448;28;20088;-68
2023/12/14 04:50:26;;;;;;;4.90;1.73;;;;;;;-10.20;62.12;100717.44;4980214;28;20143;-69
2023/12/14 04:52:52;;;;;;;10.48;1.42;;;;;;;-11.02;62.05;100597.91;5013461;28;20038;-68
2023/12/14 04:55:18;;;;;;;6.30;1.92;;;;;;;-10.39;62.31;100679.75;4996341;28;20069;-68
2023/12/14 04:57:46;;;;;;;5.95;1.05;;;;;;;-10.39;62.17;100698.22;5013485;28;20115;-69
2023/12/14 05:00:15;;;;;;;22.57;3.40;;;;;;;-10.26;62.75;100711.91;4978628;28;20052;-69
2023/12/14 05:02:41;;;;;;;6.97;1.85;;;;;;;-10.47;63.04;100639.66;5012086;28;20030;-70
2023/12/14 05:05:10;;;;;;;9.75;1.88;;;;;;;-9.97;62.64;100737.13;5012606;28;20053;-70
2023/12/14 05:07:38;;;;;;;11.93;2.40;;;;;;;-10.15;62.36;100696.09;5012069;28;20042;-69
2023/12/14 05:10:05;;;;;;;3.30;1.77;;;;;;;-10.20;62.70;100702.34;4994207;28;20099;-69
2023/12/14 05:12:33;;;;;;;10.23;2.35;;;;;;;-9.90;63.18;100710.84;5014798;28;20037;-68
2023/12/14 05:14:59;;;;;;;9.77;2.53;;;;;;;-9.67;63.33;100738.00;5015202;28;20500;-69
2023/12/14 05:17:31;;;;;;;8.52;1.88;;;;;;;-9.98;62.02;100717.72;4982940;28;20129;-68
2023/12/14 05:20:00;;;;;;;5.38;1.70;;;;;;;-10.33;62.75;100661.00;5007691;28;20052;-67
2023/12/14 05:22:28;;;;;;;16.23;3.40;;;;;;;-9.81;62.07;100746.03;4998024;28;20107;-68
2023/12/14 05:24:57;;;;;;;28.45;6.80;;;;;;;-10.30;63.07;100665.41;4996179;28;20080;-69
2023/12/14 05:27:26;;;;;;;3.40;0.90;;;;;;;-9.83;62.77;100738.34;5010483;28;20508;-67
2023/12/14 05:29:52;;;;;;;12.10;2.00;;;;;;;-9.84;62.68;100711.38;5030980;28;20096;-68
2023/12/14 05:32:18;;;;;;;13.77;2.97;;;;;;;-9.92;63.15;100677.94;5002750;28;20056;-69
2023/12/14 05:34:44;;;;;;;9.18;2.63;;;;;;;-9.70;61.99;100736.13;5011038;28;20041;-70
2023/12/14 05:37:13;;;;;;;3.47;1.05;;;;;;;-9.90;62.07;100703.28;4996772;28;20140;-69
2023/12/14 05:39:42;;;;;;;14.00;3.75;;;;;;;-10.17;62.76;100632.13;4997242;28;20487;-70
2023/12/14 05:42:08;;;;;;;5.63;2.42;;;;;;;-9.84;61.94;100701.31;5017173;28;20077;-68
2023/12/14 05:44:41;;;;;;;23.17;2.55;;;;;;;-9.87;61.60;100704.41;5010927;28;20129;-68
2023/12/14 05:47:08;;;;;;;5.63;2.35;;;;;;;-9.97;61.67;100701.88;5014065;28;20416;-70
2023/12/14 05:49:34;;;;;;;9.18;1.80;;;;;;;-9.94;61.32;100724.81;4999001;28;20038;-67
2023/12/14 05:52:00;;;;;;;6.03;2.38;;;;;;;-9.76;62.18;100744.78;4994421;28;20132;-69
2023/12/14 05:54:26;;;;;;;10.95;3.58;;;;;;;-10.32;61.70;100650.19;4997367;28;20041;-68
2023/12/14 05:56:55;;;;;;;9.27;3.40;;;;;;;-10.12;61.91;100701.41;4999658;28;20045;-70
2023/12/14 05:59:33;;;;;;;24.25;4.43;;;;;;;-9.82;62.46;100754.31;5006601;28;20041;-69
2023/12/14 06:02:00;;;;;;;13.20;2.17;;;;;;;-9.93;61.95;100716.50;5013303;28;20117;-67
2023/12/14 06:04:27;;;;;;;17.17;3.60;;;;;;;-9.88;62.51;100710.19;4997080;28;20041;-68
2023/12/14 06:06:54;;;;;;;19.27;3.80;;;;;;;-10.24;62.17;100633.22;4992243;28;20073;-66
2023/12/14 06:09:24;;;;;;;9.57;2.70;;;;;;;-9.51;61.22;100762.06;5012036;28;20041;-68
2023/12/14 06:11:56;;;;;;;18.38;4.70;;;;;;;-10.47;62.39;100601.03;5012256;28;20038;-71
2023/12/14 06:14:29;;;;;;;17.98;3.25;;;;;;;-9.58;61.86;100743.88;5010652;28;20041;-71
2023/12/14 06:16:56;;;;;;;2.08;1.05;;;;;;;-9.49;62.14;100728.66;5015218;28;20172;-71
2023/12/14 06:19:25;;;;;;;19.45;4.68;;;;;;;-9.68;62.93;100650.56;5010946;28;20439;-71
2023/12/14 06:22:00;;;;;;;8.90;1.83;;;;;;;-9.35;62.63;100694.53;4989000;28;20129;-70
2023/12/14 06:24:35;;;;;;;5.00;1.27;;;;;;;-9.24;62.11;100736.66;5010925;28;20104;-69
2023/12/14 06:27:07;;;;;;;2.97;1.00;;;;;;;-9.53;62.27;100719.06;4999482;28;20439;-71
2023/12/14 06:29:36;;;;;;;5.15;1.33;;;;;;;-9.49;61.70;100750.47;5016450;28;20042;-71
2023/12/14 06:32:05;;;;;;;11.23;2.47;;;;;;;-9.41;61.98;100755.41;5015526;28;20149;-69
2023/12/14 06:34:34;;;;;;;14.73;2.25;;;;;;;-9.50;61.75;100746.19;5009969;28;20041;-69
2023/12/14 06:37:05;;;;;;;7.82;1.98;;;;;;;-9.58;61.84;100764.03;5017884;28;20483;-68
2023/12/14 06:39:31;;;;;;;12.65;3.05;;;;;;;-10.17;62.02;100668.28;4999288;28;20041;-68
2023/12/14 06:41:58;;;;;;;22.02;3.30;;;;;;;-9.60;62.18;100745.38;5013447;28;20038;-69
2023/12/14 06:44:26;;;;;;;7.00;2.33;;;;;;;-9.73;61.06;100747.59;4999833;28;20087;-69
2023/12/14 06:46:58;;;;;;;10.27;3.63;;;;;;;-10.14;60.23;100692.81;5013637;28;20042;-67
2023/12/14 06:49:26;;;;;;;2.97;1.30;;;;;;;-10.11;61.26;100720.78;5000026;28;20123;-68
2023/12/14 06:51:54;;;;;;;11.25;2.28;;;;;;;-9.76;61.74;100762.44;5001628;28;20381;-68
2023/12/14 06:54:21;;;;;;;7.82;1.90;;;;;;;-9.87;61.18;100743.84;4981477;28;20037;-68
2023/12/14 06:56:47;;;;;;;12.38;2.75;;;;;;;-9.88;62.04;100737.91;4982711;28;20038;-70
2023/12/14 06:59:15;;;;;;;20.95;3.58;;;;;;;-9.93;61.79;100719.03;5003225;28;20068;-75
2023/12/14 07:01:50;;;;;;;9.25;1.88;;;;;;;-10.13;61.60;100694.59;5023479;28;20030;-68
2023/12/14 07:04:19;;;;;;;9.05;2.50;;;;;;;-9.83;62.26;100703.06;5026273;28;20105;-69
2023/12/14 07:06:52;;;;;;;;;;;;;;;-9.44;61.92;100757.66;4990261;28;20045;-72
2023/12/14 07:09:21;;;;;;;;;;;;;;;-9.62;61.42;100771.19;5024085;28;19921;-69
2023/12/14 07:11:56;;;;;;;9.00;2.08;;;;;;;-9.65;61.83;100769.28;5025216;28;20018;-70
2023/12/14 07:14:23;;;;;;;10.90;1.98;;;;;;;-9.66;61.97;100754.91;5033630;28;20048;-72
2023/12/14 07:16:52;;;;;;;8.95;1.80;;;;;;;-9.70;61.88;100718.50;5031364;28;20044;-70
2023/12/14 07:19:21;;;;;;;4.65;0.95;;;;;;;-9.54;61.92;100722.31;5010881;28;20117;-72
2023/12/14 07:21:53;;;;;;;11.40;2.05;;;;;;;-9.48;61.80;100735.47;5022800;28;20045;-68
2023/12/14 07:24:28;;;;;;;8.23;2.95;;;;;;;-9.41;62.32;100710.03;5024540;28;20051;-67
2023/12/14 07:26:59;;;;;;;3.60;1.42;;;;;;;-8.99;62.17;100760.59;5025485;28;20049;-70
2023/12/14 07:29:26;;;;;;;29.15;4.57;;;;;;;-9.21;61.48;100761.28;5015293;28;20046;-69
2023/12/14 07:31:56;;;;;;;16.60;2.08;;;;;;;-9.45;61.72;100745.81;5024110;28;20043;-71
2023/12/14 07:34:24;;;;;;;25.70;3.95;;;;;;;-9.81;61.83;100708.22;5020862;28;20129;-70
2023/12/14 07:36:50;;;;;;;26.20;4.65;;;;;;;-9.36;62.52;100743.19;5024017;28;20068;-70
2023/12/14 07:39:16;;;;;;;6.68;1.88;;;;;;;-9.08;62.04;100784.25;5022411;28;20543;-70
2023/12/14 07:41:50;;;;;;;11.25;2.47;;;;;;;-8.99;62.01;100778.25;5024051;28;20408;-73
2023/12/14 07:44:25;;;;;;;18.92;3.60;;;;;;;-9.78;61.66;100694.25;5024862;28;20054;-73
2023/12/14 07:46:52;;;;;;;5.53;2.22;;;;;;;-9.41;61.42;100772.16;5017064;28;20099;-72
2023/12/14 07:49:20;;;;;;;5.03;2.50;;;;;;;-9.32;60.58;100793.16;5004255;28;20050;-72
2023/12/14 07:51:50;;;;;;;2.20;1.08;;;;;;;-9.28;61.47;100785.09;5025847;28;20045;-73
2023/12/14 07:54:16;;;;;;;10.25;2.55;;;;;;;-9.41;61.72;100736.88;5009682;28;20048;-72
2023/12/14 07:56:43;;;;;;;20.88;4.00;;;;;;;-8.93;62.04;100768.66;4999815;28;20496;-71
2023/12/14 07:59:16;;;;;;;9.07;2.83;;;;;;;-9.06;62.21;100736.50;5014159;28;20125;-72
2023/12/14 08:01:43;;;;;;;10.93;2.28;;;;;;;-8.90;60.79;100766.38;5021890;28;21527;-73
2023/12/14 08:04:11;;;;;;;3.53;1.58;;;;;;;-9.82;60.70;100649.41;5008923;28;20045;-72
2023/12/14 08:06:40;;;;;;;9.38;2.42;;;;;;;-9.16;60.32;100777.69;5005443;28;20113;-71
2023/12/14 08:09:06;;;;;;;7.90;2.60;;;;;;;-9.09;60.50;100784.16;5023005;28;20064;-72
2023/12/14 08:11:37;;;;;;;9.05;2.28;;;;;;;-9.22;61.32;100721.69;4994868;28;20048;-71
2023/12/14 08:14:03;;;;;;;13.27;1.60;;;;;;;-8.89;60.80;100769.81;5001121;28;20037;-71
2023/12/14 08:16:30;;;;;;;7.32;1.40;;;;;;;-8.84;61.08;100797.19;5020098;28;20105;-72
2023/12/14 08:18:56;;;;;;;8.85;1.60;;;;;;;-8.92;61.34;100750.25;5025886;28;20097;-72
2023/12/14 08:21:43;;;;;;;13.60;2.22;;;;;;;-8.73;61.06;100772.00;5008051;28;20049;-73
2023/12/14 08:24:09;;;;;;;9.48;2.05;;;;;;;-9.40;60.18;100673.09;5013341;28;20049;-77
2023/12/14 08:26:36;;;;;;;17.52;2.80;;;;;;;-9.25;60.11;100749.16;5028900;28;20056;-73
2023/12/14 08:29:02;;;;;;;27.90;4.75;;;;;;;-9.43;59.96;100693.91;5002204;28;20550;-72
2023/12/14 08:31:32;;;;;;;5.70;1.67;;;;;;;-9.39;60.49;100710.16;5026496;28;20045;-76
2023/12/14 08:34:06;;;;;;;19.67;3.70;;;;;;;-9.15;61.02;100766.81;5012246;28;20045;-76
2023/12/14 08:36:35;;;;;;;19.08;3.03;;;;;;;-9.76;60.98;100659.13;5028220;28;20396;-72
2023/12/14 08:39:02;;;;;;;5.88;1.40;;;;;;;-8.92;61.13;100750.25;5006937;28;20108;-72
2023/12/14 08:41:28;;;;;;;12.20;2.65;;;;;;;-8.91;61.11;100746.09;5019148;28;20052;-70
2023/12/14 08:43:55;;;;;;;14.05;2.20;;;;;;;-9.03;59.86;100756.03;5000450;28;20037;-74
2023/12/14 08:46:45;;;;;;;15.00;2.28;;;;;;;-9.38;60.63;100719.50;5009931;28;20065;-75
2023/12/14 08:49:11;;;;;;;15.52;1.83;;;;;;;-9.09;60.34;100782.50;5028054;28;20063;-78
2023/12/14 08:51:42;;;;;;;5.72;1.58;;;;;;;-9.15;60.71;100768.47;4991781;28;20049;-72
2023/12/14 08:54:11;;;;;;;11.40;2.15;;;;;;;-8.76;61.37;100786.88;4994708;28;20045;-73
2023/12/14 08:56:37;;;;;;;13.85;1.80;;;;;;;-9.20;60.81;100711.72;4990518;28;20061;-69
2023/12/14 08:59:04;;;;;;;8.32;2.60;;;;;;;-8.97;60.02;100722.09;4997779;28;20447;-75
2023/12/14 09:01:30;;;;;;;17.35;3.53;;;;;;;-8.83;60.35;100735.88;4998785;28;20457;-76
2023/12/14 09:03:56;;;;;;;19.50;2.42;;;;;;;-8.33;61.44;100772.75;5002869;28;20042;-70
2023/12/14 09:06:24;;;;;;;23.02;4.18;;;;;;;-8.34;60.88;100723.00;5019941;28;20041;-70
2023/12/14 09:08:51;;;;;;;6.28;1.63;;;;;;;-8.18;60.84;100761.34;5005002;28;20045;-70
2023/12/14 09:11:17;;;;;;;6.32;1.58;;;;;;;-8.46;60.04;100745.59;5016245;28;20048;-72
2023/12/14 09:13:43;;;;;;;11.43;2.70;;;;;;;-9.00;60.74;100675.56;5024618;28;20515;-71
2023/12/14 09:16:11;;;;;;;12.45;2.75;;;;;;;-8.16;61.09;100774.09;5022529;28;20056;-72
2023/12/14 09:18:37;;;;;;;8.95;2.50;;;;;;;-8.45;59.23;100769.19;5020086;28;20121;-70
2023/12/14 09:21:09;;;;;;;8.27;2.72;;;;;;;-8.86;60.11;100689.34;4999322;28;20127;-74
2023/12/14 09:23:40;;;;;;;;;;;;;;;-8.30;60.51;100764.53;5016417;28;20049;-75
2023/12/14 09:26:06;;;;;;;18.23;2.37;;;;;;;-8.41;60.48;100735.88;5020858;28;20448;-74
2023/12/14 09:28:32;;;;;;;31.98;4.00;;;;;;;-8.61;60.79;100653.50;5022403;28;20794;-72
2023/12/14 09:30:58;;;;;;;11.90;2.50;;;;;;;-8.24;59.83;100744.84;5003819;28;20161;-72
2023/12/14 09:33:24;;;;;;;15.38;2.95;;;;;;;-8.22;60.33;100728.16;5016709;28;20069;-69
2023/12/14 09:35:53;;;;;;;5.90;1.95;;;;;;;-7.76;60.92;100774.81;5024635;28;20038;-67
2023/12/14 09:38:24;;;;;;;4.28;2.15;;;;;;;-8.56;58.08;100693.50;5023145;28;20041;-73
2023/12/14 09:40:53;;;;;;;15.65;3.05;;;;;;;-8.47;59.23;100762.38;4995011;28;20041;-71
2023/12/14 09:43:21;;;;;;;5.60;2.00;;;;;;;-8.68;59.27;100731.25;4997352;28;20049;-73
2023/12/14 09:45:49;;;;;;;15.15;3.70;;;;;;;-8.60;59.07;100767.22;5007966;28;20590;-71
2023/12/14 09:48:16;;;;;;;22.20;2.78;;;;;;;-8.59;59.86;100765.53;5019025;28;20056;-70
2023/12/14 09:50:42;;;;;;;26.00;4.68;;;;;;;-8.27;60.22;100784.97;5016757;28;20073;-71
2023/12/14 09:53:18;;;;;;;28.63;4.43;;;;;;;-8.34;60.75;100731.44;5029531;28;20050;-68
2023/12/14 09:55:45;;;;;;;5.53;2.55;;;;;;;-7.88;60.61;100763.72;4997938;28;20066;-68
2023/12/14 09:58:12;;;;;;;9.77;2.47;;;;;;;-7.94;60.25;100769.16;5013729;28;20043;-68
2023/12/14 10:00:42;;;;;;;4.13;1.77;;;;;;;-8.29;59.04;100748.63;5000412;28;20057;-72
2023/12/14 10:03:22;;;;;;;30.67;3.67;;;;;;;-8.48;59.33;100795.13;5003637;28;20157;-64
2023/12/14 10:05:50;;;;;;;16.35;5.43;;;;;;;-8.60;59.25;100781.47;5001390;28;20042;-67
2023/12/14 10:08:17;;;;;;;26.38;5.00;;;;;;;-8.49;60.42;100770.63;5002087;28;20097;-67
2023/12/14 10:10:49;;;;;;;26.20;4.57;;;;;;;-8.32;60.18;100765.28;4985659;28;20034;-66
2023/12/14 10:13:18;;;;;;;27.55;4.95;;;;;;;-8.11;60.78;100739.13;5002032;28;20042;-68
2023/12/14 10:15:52;;;;;;;7.30;1.67;;;;;;;-8.12;59.65;100755.91;5017854;28;20518;-71
2023/12/14 10:18:35;;;;;;;10.07;2.67;;;;;;;-8.48;59.34;100725.25;4999601;28;20057;-66
2023/12/14 10:21:15;;;;;;;3.13;1.27;;;;;;;-8.31;59.92;100713.16;4998568;28;20449;-71
2023/12/14 10:23:41;;;;;;;5.40;1.13;;;;;;;-7.94;59.50;100743.91;5003353;28;20048;-67
2023/12/14 10:26:10;;;;;;;4.72;1.40;;;;;;;-8.15;59.36;100721.97;5001607;28;20424;-68
2023/12/14 10:28:42;;;;;;;11.43;3.00;;;;;;;-8.51;58.04;100732.63;4988003;28;20064;-73
2023/12/14 10:31:28;;;;;;;11.73;2.58;;;;;;;-9.09;58.36;100698.38;5015565;28;20034;-68
2023/12/14 10:34:00;;;;;;;5.53;1.85;;;;;;;-9.43;59.15;100638.44;4987277;28;20041;-66
2023/12/14 10:36:27;;;;;;;10.10;3.47;;;;;;;-9.06;58.87;100711.25;5000455;28;20061;-65
2023/12/14 10:38:53;;;;;;;13.35;2.75;;;;;;;-8.98;60.16;100689.19;5000851;28;20072;-66
2023/12/14 10:41:24;;;;;;;8.00;2.25;;;;;;;-9.02;59.30;100669.50;5005939;28;20551;-65
2023/12/14 10:44:00;;;;;;;9.25;2.35;;;;;;;-8.73;59.95;100726.56;5017980;28;20081;-66
2023/12/14 10:46:32;;;;;;;4.90;1.95;;;;;;;-9.15;59.14;100638.19;5001304;28;20077;-65
2023/12/14 10:52:12;;;;;;;13.57;3.60;;;;;;;-8.64;59.47;100670.16;5000513;28;20042;-72
2023/12/14 10:54:41;;;;;;;11.70;2.10;;;;;;;-8.74;59.60;100636.47;4970219;28;20512;-70
2023/12/14 10:57:10;;;;;;;2.50;0.98;;;;;;;-8.40;58.39;100719.97;4985809;28;20061;-69
2023/12/14 10:59:46;;;;;;;8.85;2.83;;;;;;;-8.47;59.72;100703.44;4992133;28;20053;-75
2023/12/14 11:02:17;;;;;;;3.33;1.58;;;;;;;-8.93;58.97;100612.22;4985918;28;20038;-67
2023/12/14 11:05:09;;;;;;;15.75;3.17;;;;;;;-8.48;59.70;100679.81;4987969;28;20044;-71
2023/12/14 11:08:09;;;;;;;;;;;;;;;-8.14;59.54;100699.34;4971227;28;20061;-68
2023/12/14 11:10:44;;;;;;;9.40;2.50;;;;;;;-8.51;58.84;100686.28;4984540;28;19947;-68
2023/12/14 11:13:13;;;;;;;15.23;3.17;;;;;;;-8.64;59.62;100691.97;4966064;28;20042;-69
2023/12/14 11:15:49;;;;;;;20.65;4.60;;;;;;;-8.76;60.22;100617.78;4959708;28;20051;-65
2023/12/14 11:18:15;;;;;;;7.78;1.75;;;;;;;-8.00;60.14;100692.00;4966559;28;20050;-67
2023/12/14 11:20:51;;;;;;;6.30;1.70;;;;;;;-8.30;59.03;100707.34;4983829;28;20038;-66
2023/12/14 11:23:26;;;;;;;7.90;2.53;;;;;;;-8.30;59.92;100719.06;4982890;28;20532;-66
2023/12/14 11:26:10;;;;;;;21.85;4.68;;;;;;;-8.26;59.87;100721.97;4967037;28;20038;-69
2023/12/14 11:28:47;;;;;;;15.82;3.45;;;;;;;-8.39;59.43;100707.47;5001023;28;20034;-69
2023/12/14 11:31:13;;;;;;;10.35;2.63;;;;;;;-8.64;58.79;100662.59;4969588;28;20043;-68